sensor_id;sensor_type;location;lat;lon;timestamp;P1;durP1;ratioP1;P2;durP2;ratioP2
26620;SDS011;14253;44.840;10.444;2022-12-10T00:01:11;53.00;;;28.17;;
26620;SDS011;14253;44.840;10.444;2022-12-10T00:03:42;45.35;;;25.85;;
26620;SDS011;14253;44.840;10.444;2022-12-10T00:06:10;41.30;;;22.95;;
26620;SDS011;14253;44.840;10.444;2022-12-10T00:08:38;40.05;;;22.83;;
26620;SDS011;14253;44.840;10.444;2022-12-10T00:11:05;40.03;;;22.48;;
26620;SDS011;14253;44.840;10.444;2022-12-10T00:13:33;41.08;;;20.80;;
26620;SDS011;14253;44.840;10.444;2022-12-10T00:16:00;41.03;;;22.42;;
26620;SDS011;14253;44.840;10.444;2022-12-10T00:18:28;45.05;;;22.25;;
26620;SDS011;14253;44.840;10.444;2022-12-10T00:20:54;41.42;;;22.15;;
26620;SDS011;14253;44.840;10.444;2022-12-10T00:23:20;42.72;;;21.88;;
26620;SDS011;14253;44.840;10.444;2022-12-10T00:25:46;37.17;;;20.50;;
26620;SDS011;14253;44.840;10.444;2022-12-10T00:28:12;38.55;;;22.05;;
26620;SDS011;14253;44.840;10.444;2022-12-10T00:30:39;36.20;;;20.83;;
26620;SDS011;14253;44.840;10.444;2022-12-10T00:33:05;40.15;;;22.67;;
26620;SDS011;14253;44.840;10.444;2022-12-10T00:35:34;39.05;;;21.10;;
26620;SDS011;14253;44.840;10.444;2022-12-10T00:38:00;36.22;;;20.48;;
26620;SDS011;14253;44.840;10.444;2022-12-10T00:40:26;34.35;;;19.05;;
26620;SDS011;14253;44.840;10.444;2022-12-10T00:42:53;36.25;;;20.08;;
26620;SDS011;14253;44.840;10.444;2022-12-10T00:45:19;36.28;;;19.38;;
26620;SDS011;14253;44.840;10.444;2022-12-10T00:47:45;38.70;;;20.65;;
26620;SDS011;14253;44.840;10.444;2022-12-10T00:50:11;38.22;;;20.30;;
26620;SDS011;14253;44.840;10.444;2022-12-10T00:52:36;35.83;;;20.25;;
26620;SDS011;14253;44.840;10.444;2022-12-10T00:55:03;39.55;;;20.63;;
26620;SDS011;14253;44.840;10.444;2022-12-10T00:57:29;33.83;;;19.83;;
26620;SDS011;14253;44.840;10.444;2022-12-10T00:59:55;38.55;;;21.20;;
26620;SDS011;14253;44.840;10.444;2022-12-10T01:02:21;35.13;;;20.90;;
26620;SDS011;14253;44.840;10.444;2022-12-10T01:04:51;39.08;;;22.65;;
26620;SDS011;14253;44.840;10.444;2022-12-10T01:07:18;37.63;;;20.55;;
26620;SDS011;14253;44.840;10.444;2022-12-10T01:09:44;36.15;;;20.02;;
26620;SDS011;14253;44.840;10.444;2022-12-10T01:12:10;34.30;;;18.70;;
26620;SDS011;14253;44.840;10.444;2022-12-10T01:14:36;31.80;;;18.60;;
26620;SDS011;14253;44.840;10.444;2022-12-10T01:17:03;32.22;;;18.13;;
26620;SDS011;14253;44.840;10.444;2022-12-10T01:19:30;33.35;;;18.63;;
26620;SDS011;14253;44.840;10.444;2022-12-10T01:22:00;34.75;;;19.33;;
26620;SDS011;14253;44.840;10.444;2022-12-10T01:24:28;33.13;;;20.23;;
26620;SDS011;14253;44.840;10.444;2022-12-10T01:26:54;36.25;;;19.65;;
26620;SDS011;14253;44.840;10.444;2022-12-10T01:29:21;33.90;;;19.42;;
26620;SDS011;14253;44.840;10.444;2022-12-10T01:31:50;36.20;;;19.83;;
26620;SDS011;14253;44.840;10.444;2022-12-10T01:34:17;35.83;;;20.30;;
26620;SDS011;14253;44.840;10.444;2022-12-10T01:36:44;35.03;;;19.48;;
26620;SDS011;14253;44.840;10.444;2022-12-10T01:39:12;34.03;;;20.35;;
26620;SDS011;14253;44.840;10.444;2022-12-10T01:41:43;35.83;;;19.83;;
26620;SDS011;14253;44.840;10.444;2022-12-10T01:46:39;37.33;;;19.50;;
26620;SDS011;14253;44.840;10.444;2022-12-10T01:49:07;36.13;;;19.85;;
26620;SDS011;14253;44.840;10.444;2022-12-10T01:51:37;34.55;;;19.73;;
26620;SDS011;14253;44.840;10.444;2022-12-10T01:54:06;33.90;;;20.20;;
26620;SDS011;14253;44.840;10.444;2022-12-10T01:56:35;36.67;;;19.23;;
26620;SDS011;14253;44.840;10.444;2022-12-10T01:59:06;34.90;;;20.42;;
26620;SDS011;14253;44.840;10.444;2022-12-10T02:01:37;35.00;;;19.60;;
26620;SDS011;14253;44.840;10.444;2022-12-10T02:09:35;35.13;;;19.77;;
26620;SDS011;14253;44.840;10.444;2022-12-10T02:12:23;37.65;;;20.00;;
26620;SDS011;14253;44.840;10.444;2022-12-10T02:15:15;33.95;;;19.98;;
26620;SDS011;14253;44.840;10.444;2022-12-10T02:17:51;35.33;;;19.65;;
26620;SDS011;14253;44.840;10.444;2022-12-10T02:20:26;33.25;;;18.63;;
26620;SDS011;14253;44.840;10.444;2022-12-10T02:22:55;34.03;;;19.65;;
26620;SDS011;14253;44.840;10.444;2022-12-10T02:25:30;33.72;;;19.58;;
26620;SDS011;14253;44.840;10.444;2022-12-10T02:30:56;38.08;;;19.98;;
26620;SDS011;14253;44.840;10.444;2022-12-10T02:33:25;37.20;;;19.63;;
26620;SDS011;14253;44.840;10.444;2022-12-10T02:35:54;34.63;;;19.38;;
26620;SDS011;14253;44.840;10.444;2022-12-10T02:38:24;37.95;;;21.30;;
26620;SDS011;14253;44.840;10.444;2022-12-10T02:40:59;36.17;;;20.00;;
26620;SDS011;14253;44.840;10.444;2022-12-10T02:43:36;37.08;;;20.98;;
26620;SDS011;14253;44.840;10.444;2022-12-10T02:46:03;37.70;;;20.55;;
26620;SDS011;14253;44.840;10.444;2022-12-10T02:48:31;37.55;;;21.63;;
26620;SDS011;14253;44.840;10.444;2022-12-10T02:50:59;34.78;;;19.42;;
26620;SDS011;14253;44.840;10.444;2022-12-10T02:53:25;35.30;;;19.02;;
26620;SDS011;14253;44.840;10.444;2022-12-10T02:59:03;39.35;;;19.65;;
26620;SDS011;14253;44.840;10.444;2022-12-10T03:01:36;36.75;;;20.23;;
26620;SDS011;14253;44.840;10.444;2022-12-10T03:04:21;35.25;;;20.35;;
26620;SDS011;14253;44.840;10.444;2022-12-10T03:07:00;33.90;;;19.35;;
26620;SDS011;14253;44.840;10.444;2022-12-10T03:09:38;33.78;;;19.10;;
26620;SDS011;14253;44.840;10.444;2022-12-10T03:12:20;30.50;;;18.00;;
26620;SDS011;14253;44.840;10.444;2022-12-10T03:15:03;34.13;;;18.00;;
26620;SDS011;14253;44.840;10.444;2022-12-10T03:17:32;34.33;;;18.77;;
26620;SDS011;14253;44.840;10.444;2022-12-10T03:19:58;30.90;;;17.52;;
26620;SDS011;14253;44.840;10.444;2022-12-10T03:22:27;33.30;;;19.30;;
26620;SDS011;14253;44.840;10.444;2022-12-10T03:24:54;34.50;;;19.90;;
26620;SDS011;14253;44.840;10.444;2022-12-10T03:27:22;36.42;;;19.98;;
26620;SDS011;14253;44.840;10.444;2022-12-10T03:29:53;35.53;;;20.17;;
26620;SDS011;14253;44.840;10.444;2022-12-10T03:32:22;33.63;;;19.38;;
26620;SDS011;14253;44.840;10.444;2022-12-10T03:34:50;33.45;;;18.80;;
26620;SDS011;14253;44.840;10.444;2022-12-10T03:37:19;35.55;;;19.33;;
26620;SDS011;14253;44.840;10.444;2022-12-10T03:39:47;35.90;;;20.38;;
26620;SDS011;14253;44.840;10.444;2022-12-10T03:42:14;36.40;;;20.75;;
26620;SDS011;14253;44.840;10.444;2022-12-10T03:44:40;34.40;;;20.25;;
26620;SDS011;14253;44.840;10.444;2022-12-10T03:47:07;37.08;;;21.10;;
26620;SDS011;14253;44.840;10.444;2022-12-10T03:49:35;33.20;;;18.40;;
26620;SDS011;14253;44.840;10.444;2022-12-10T03:52:01;33.28;;;18.17;;
26620;SDS011;14253;44.840;10.444;2022-12-10T03:54:28;31.50;;;18.83;;
26620;SDS011;14253;44.840;10.444;2022-12-10T03:56:54;29.40;;;18.10;;
26620;SDS011;14253;44.840;10.444;2022-12-10T03:59:20;35.67;;;18.90;;
26620;SDS011;14253;44.840;10.444;2022-12-10T04:01:47;34.35;;;18.45;;
26620;SDS011;14253;44.840;10.444;2022-12-10T04:04:13;31.13;;;18.30;;
26620;SDS011;14253;44.840;10.444;2022-12-10T04:06:40;30.98;;;18.13;;
26620;SDS011;14253;44.840;10.444;2022-12-10T04:09:08;32.65;;;19.67;;
26620;SDS011;14253;44.840;10.444;2022-12-10T04:11:35;33.10;;;18.60;;
26620;SDS011;14253;44.840;10.444;2022-12-10T04:14:01;30.90;;;18.42;;
26620;SDS011;14253;44.840;10.444;2022-12-10T04:16:46;36.53;;;19.70;;
26620;SDS011;14253;44.840;10.444;2022-12-10T04:19:12;35.53;;;20.20;;
26620;SDS011;14253;44.840;10.444;2022-12-10T04:21:41;33.25;;;19.73;;
26620;SDS011;14253;44.840;10.444;2022-12-10T04:24:27;33.05;;;20.05;;
26620;SDS011;14253;44.840;10.444;2022-12-10T04:27:23;36.60;;;20.17;;
26620;SDS011;14253;44.840;10.444;2022-12-10T04:29:54;32.45;;;20.02;;
26620;SDS011;14253;44.840;10.444;2022-12-10T04:32:21;39.63;;;20.77;;
26620;SDS011;14253;44.840;10.444;2022-12-10T04:34:48;34.90;;;19.27;;
26620;SDS011;14253;44.840;10.444;2022-12-10T04:37:14;35.92;;;20.75;;
26620;SDS011;14253;44.840;10.444;2022-12-10T04:39:42;33.25;;;21.45;;
26620;SDS011;14253;44.840;10.444;2022-12-10T04:42:08;36.92;;;23.27;;
26620;SDS011;14253;44.840;10.444;2022-12-10T04:44:34;32.58;;;20.67;;
26620;SDS011;14253;44.840;10.444;2022-12-10T04:47:00;36.20;;;20.70;;
26620;SDS011;14253;44.840;10.444;2022-12-10T04:49:28;37.88;;;21.35;;
26620;SDS011;14253;44.840;10.444;2022-12-10T04:51:54;36.13;;;20.88;;
26620;SDS011;14253;44.840;10.444;2022-12-10T04:54:20;36.15;;;21.90;;
26620;SDS011;14253;44.840;10.444;2022-12-10T04:56:46;37.97;;;21.17;;
26620;SDS011;14253;44.840;10.444;2022-12-10T04:59:12;35.97;;;21.08;;
26620;SDS011;14253;44.840;10.444;2022-12-10T05:01:39;37.22;;;21.60;;
26620;SDS011;14253;44.840;10.444;2022-12-10T05:04:06;35.88;;;20.38;;
26620;SDS011;14253;44.840;10.444;2022-12-10T05:06:34;36.03;;;20.33;;
26620;SDS011;14253;44.840;10.444;2022-12-10T05:09:01;38.20;;;21.52;;
26620;SDS011;14253;44.840;10.444;2022-12-10T05:11:28;35.40;;;20.40;;
26620;SDS011;14253;44.840;10.444;2022-12-10T05:13:55;37.20;;;19.88;;
26620;SDS011;14253;44.840;10.444;2022-12-10T05:16:23;33.83;;;19.70;;
26620;SDS011;14253;44.840;10.444;2022-12-10T05:18:51;38.03;;;21.10;;
26620;SDS011;14253;44.840;10.444;2022-12-10T05:21:19;37.28;;;21.40;;
26620;SDS011;14253;44.840;10.444;2022-12-10T05:23:47;36.28;;;20.98;;
26620;SDS011;14253;44.840;10.444;2022-12-10T05:26:19;37.67;;;21.38;;
26620;SDS011;14253;44.840;10.444;2022-12-10T05:28:51;37.05;;;19.98;;
26620;SDS011;14253;44.840;10.444;2022-12-10T05:33:49;38.00;;;20.63;;
26620;SDS011;14253;44.840;10.444;2022-12-10T05:36:17;38.33;;;22.00;;
26620;SDS011;14253;44.840;10.444;2022-12-10T05:38:44;39.40;;;22.50;;
26620;SDS011;14253;44.840;10.444;2022-12-10T05:41:12;36.80;;;20.70;;
26620;SDS011;14253;44.840;10.444;2022-12-10T05:43:38;33.78;;;21.05;;
26620;SDS011;14253;44.840;10.444;2022-12-10T05:46:05;32.22;;;19.83;;
26620;SDS011;14253;44.840;10.444;2022-12-10T05:48:33;36.17;;;20.63;;
26620;SDS011;14253;44.840;10.444;2022-12-10T05:51:04;34.25;;;19.55;;
26620;SDS011;14253;44.840;10.444;2022-12-10T05:53:33;35.88;;;21.45;;
26620;SDS011;14253;44.840;10.444;2022-12-10T05:56:01;40.78;;;23.40;;
26620;SDS011;14253;44.840;10.444;2022-12-10T05:58:29;36.03;;;20.70;;
26620;SDS011;14253;44.840;10.444;2022-12-10T06:00:55;36.30;;;21.13;;
26620;SDS011;14253;44.840;10.444;2022-12-10T06:03:23;37.42;;;20.25;;
26620;SDS011;14253;44.840;10.444;2022-12-10T06:05:50;32.30;;;19.73;;
26620;SDS011;14253;44.840;10.444;2022-12-10T06:08:16;34.17;;;19.50;;
26620;SDS011;14253;44.840;10.444;2022-12-10T06:10:42;36.72;;;20.10;;
26620;SDS011;14253;44.840;10.444;2022-12-10T06:13:07;32.00;;;19.33;;
26620;SDS011;14253;44.840;10.444;2022-12-10T06:15:33;32.78;;;19.70;;
26620;SDS011;14253;44.840;10.444;2022-12-10T06:18:03;33.60;;;19.25;;
26620;SDS011;14253;44.840;10.444;2022-12-10T06:20:29;36.95;;;19.58;;
26620;SDS011;14253;44.840;10.444;2022-12-10T06:22:55;36.15;;;20.33;;
26620;SDS011;14253;44.840;10.444;2022-12-10T06:25:21;37.50;;;20.05;;
26620;SDS011;14253;44.840;10.444;2022-12-10T06:27:47;40.95;;;22.05;;
26620;SDS011;14253;44.840;10.444;2022-12-10T06:30:13;36.42;;;21.13;;
26620;SDS011;14253;44.840;10.444;2022-12-10T06:32:39;37.45;;;23.38;;
26620;SDS011;14253;44.840;10.444;2022-12-10T06:35:05;37.20;;;21.55;;
26620;SDS011;14253;44.840;10.444;2022-12-10T06:37:31;41.33;;;23.60;;
26620;SDS011;14253;44.840;10.444;2022-12-10T06:39:57;42.78;;;23.98;;
26620;SDS011;14253;44.840;10.444;2022-12-10T06:42:24;40.85;;;22.25;;
26620;SDS011;14253;44.840;10.444;2022-12-10T06:44:50;44.50;;;23.20;;
26620;SDS011;14253;44.840;10.444;2022-12-10T06:47:16;39.35;;;22.20;;
26620;SDS011;14253;44.840;10.444;2022-12-10T06:49:42;40.20;;;22.30;;
26620;SDS011;14253;44.840;10.444;2022-12-10T06:52:08;41.45;;;23.70;;
26620;SDS011;14253;44.840;10.444;2022-12-10T06:54:34;38.75;;;23.27;;
26620;SDS011;14253;44.840;10.444;2022-12-10T06:57:00;42.47;;;23.35;;
26620;SDS011;14253;44.840;10.444;2022-12-10T06:59:26;45.30;;;24.90;;
26620;SDS011;14253;44.840;10.444;2022-12-10T07:01:52;41.58;;;23.92;;
26620;SDS011;14253;44.840;10.444;2022-12-10T07:04:18;46.67;;;25.33;;
26620;SDS011;14253;44.840;10.444;2022-12-10T07:06:44;41.30;;;24.17;;
26620;SDS011;14253;44.840;10.444;2022-12-10T07:09:10;43.50;;;24.25;;
26620;SDS011;14253;44.840;10.444;2022-12-10T07:11:36;41.97;;;23.38;;
26620;SDS011;14253;44.840;10.444;2022-12-10T07:14:02;44.95;;;24.55;;
26620;SDS011;14253;44.840;10.444;2022-12-10T07:16:29;47.80;;;25.38;;
26620;SDS011;14253;44.840;10.444;2022-12-10T07:18:57;44.78;;;24.52;;
26620;SDS011;14253;44.840;10.444;2022-12-10T07:21:27;47.55;;;25.27;;
26620;SDS011;14253;44.840;10.444;2022-12-10T07:23:59;47.92;;;24.75;;
26620;SDS011;14253;44.840;10.444;2022-12-10T07:26:35;41.42;;;23.75;;
26620;SDS011;14253;44.840;10.444;2022-12-10T07:29:05;47.42;;;25.98;;
26620;SDS011;14253;44.840;10.444;2022-12-10T07:31:34;47.33;;;26.38;;
26620;SDS011;14253;44.840;10.444;2022-12-10T07:34:01;50.13;;;29.90;;
26620;SDS011;14253;44.840;10.444;2022-12-10T07:36:27;55.05;;;31.60;;
26620;SDS011;14253;44.840;10.444;2022-12-10T07:38:54;55.70;;;32.13;;
26620;SDS011;14253;44.840;10.444;2022-12-10T07:41:20;49.35;;;28.17;;
26620;SDS011;14253;44.840;10.444;2022-12-10T07:43:48;51.50;;;28.70;;
26620;SDS011;14253;44.840;10.444;2022-12-10T07:46:17;48.22;;;27.33;;
26620;SDS011;14253;44.840;10.444;2022-12-10T07:48:49;51.40;;;28.85;;
26620;SDS011;14253;44.840;10.444;2022-12-10T07:51:16;54.45;;;27.83;;
26620;SDS011;14253;44.840;10.444;2022-12-10T07:53:45;52.53;;;27.98;;
26620;SDS011;14253;44.840;10.444;2022-12-10T07:56:12;56.75;;;30.40;;
26620;SDS011;14253;44.840;10.444;2022-12-10T07:58:40;56.28;;;30.75;;
26620;SDS011;14253;44.840;10.444;2022-12-10T08:01:08;62.28;;;33.28;;
26620;SDS011;14253;44.840;10.444;2022-12-10T08:03:37;61.88;;;31.88;;
26620;SDS011;14253;44.840;10.444;2022-12-10T08:06:04;60.92;;;31.85;;
26620;SDS011;14253;44.840;10.444;2022-12-10T08:08:35;69.10;;;33.88;;
26620;SDS011;14253;44.840;10.444;2022-12-10T08:11:02;65.05;;;34.53;;
26620;SDS011;14253;44.840;10.444;2022-12-10T08:13:32;65.55;;;33.67;;
26620;SDS011;14253;44.840;10.444;2022-12-10T08:16:06;65.88;;;34.08;;
26620;SDS011;14253;44.840;10.444;2022-12-10T08:18:33;64.20;;;32.45;;
26620;SDS011;14253;44.840;10.444;2022-12-10T08:21:19;61.92;;;32.05;;
26620;SDS011;14253;44.840;10.444;2022-12-10T08:23:47;63.40;;;33.28;;
26620;SDS011;14253;44.840;10.444;2022-12-10T08:26:18;70.85;;;34.90;;
26620;SDS011;14253;44.840;10.444;2022-12-10T08:28:46;68.50;;;33.17;;
26620;SDS011;14253;44.840;10.444;2022-12-10T08:31:14;66.82;;;33.97;;
26620;SDS011;14253;44.840;10.444;2022-12-10T08:33:41;66.07;;;34.28;;
26620;SDS011;14253;44.840;10.444;2022-12-10T08:36:08;65.13;;;34.08;;
26620;SDS011;14253;44.840;10.444;2022-12-10T08:38:37;64.55;;;32.13;;
26620;SDS011;14253;44.840;10.444;2022-12-10T08:41:10;69.05;;;33.38;;
26620;SDS011;14253;44.840;10.444;2022-12-10T08:43:47;69.85;;;34.08;;
26620;SDS011;14253;44.840;10.444;2022-12-10T08:46:15;69.95;;;36.20;;
26620;SDS011;14253;44.840;10.444;2022-12-10T08:48:41;66.63;;;35.22;;
26620;SDS011;14253;44.840;10.444;2022-12-10T08:51:08;71.82;;;35.25;;
26620;SDS011;14253;44.840;10.444;2022-12-10T08:53:35;73.05;;;36.00;;
26620;SDS011;14253;44.840;10.444;2022-12-10T08:56:01;68.72;;;35.42;;
26620;SDS011;14253;44.840;10.444;2022-12-10T08:58:27;64.72;;;34.70;;
26620;SDS011;14253;44.840;10.444;2022-12-10T09:00:53;70.32;;;36.63;;
26620;SDS011;14253;44.840;10.444;2022-12-10T09:03:20;68.22;;;35.33;;
26620;SDS011;14253;44.840;10.444;2022-12-10T09:05:46;68.60;;;36.15;;
26620;SDS011;14253;44.840;10.444;2022-12-10T09:08:13;68.75;;;36.58;;
26620;SDS011;14253;44.840;10.444;2022-12-10T09:10:39;69.43;;;36.40;;
26620;SDS011;14253;44.840;10.444;2022-12-10T09:13:06;78.35;;;38.80;;
26620;SDS011;14253;44.840;10.444;2022-12-10T09:15:32;68.88;;;37.60;;
26620;SDS011;14253;44.840;10.444;2022-12-10T09:17:58;71.40;;;38.60;;
26620;SDS011;14253;44.840;10.444;2022-12-10T09:20:24;71.03;;;35.22;;
26620;SDS011;14253;44.840;10.444;2022-12-10T09:22:50;68.50;;;36.15;;
26620;SDS011;14253;44.840;10.444;2022-12-10T09:25:16;69.05;;;34.72;;
26620;SDS011;14253;44.840;10.444;2022-12-10T09:27:44;73.38;;;37.10;;
26620;SDS011;14253;44.840;10.444;2022-12-10T09:30:10;65.57;;;34.25;;
26620;SDS011;14253;44.840;10.444;2022-12-10T09:32:37;66.18;;;34.80;;
26620;SDS011;14253;44.840;10.444;2022-12-10T09:35:03;71.72;;;35.70;;
26620;SDS011;14253;44.840;10.444;2022-12-10T09:37:30;74.43;;;37.20;;
26620;SDS011;14253;44.840;10.444;2022-12-10T09:39:56;73.43;;;36.85;;
26620;SDS011;14253;44.840;10.444;2022-12-10T09:42:26;71.70;;;34.60;;
26620;SDS011;14253;44.840;10.444;2022-12-10T09:45:18;68.90;;;35.28;;
26620;SDS011;14253;44.840;10.444;2022-12-10T09:53:17;72.90;;;37.90;;
26620;SDS011;14253;44.840;10.444;2022-12-10T09:55:46;71.85;;;37.88;;
26620;SDS011;14253;44.840;10.444;2022-12-10T09:58:23;78.45;;;37.72;;
26620;SDS011;14253;44.840;10.444;2022-12-10T10:00:55;68.45;;;36.90;;
26620;SDS011;14253;44.840;10.444;2022-12-10T10:03:24;72.18;;;36.10;;
26620;SDS011;14253;44.840;10.444;2022-12-10T10:05:51;72.05;;;36.55;;
26620;SDS011;14253;44.840;10.444;2022-12-10T10:10:56;72.05;;;36.83;;
26620;SDS011;14253;44.840;10.444;2022-12-10T10:13:34;61.78;;;33.55;;
26620;SDS011;14253;44.840;10.444;2022-12-10T10:16:49;64.07;;;34.00;;
26620;SDS011;14253;44.840;10.444;2022-12-10T10:21:29;61.03;;;32.85;;
26620;SDS011;14253;44.840;10.444;2022-12-10T10:24:03;63.40;;;31.83;;
26620;SDS011;14253;44.840;10.444;2022-12-10T10:26:31;61.97;;;33.28;;
26620;SDS011;14253;44.840;10.444;2022-12-10T10:29:02;64.82;;;33.22;;
26620;SDS011;14253;44.840;10.444;2022-12-10T10:31:32;58.45;;;31.27;;
26620;SDS011;14253;44.840;10.444;2022-12-10T10:34:00;54.42;;;30.35;;
26620;SDS011;14253;44.840;10.444;2022-12-10T10:36:32;61.13;;;32.53;;
26620;SDS011;14253;44.840;10.444;2022-12-10T10:41:44;60.83;;;30.50;;
26620;SDS011;14253;44.840;10.444;2022-12-10T10:44:15;56.53;;;29.17;;
26620;SDS011;14253;44.840;10.444;2022-12-10T10:46:44;58.97;;;32.63;;
26620;SDS011;14253;44.840;10.444;2022-12-10T10:51:50;54.40;;;29.00;;
26620;SDS011;14253;44.840;10.444;2022-12-10T10:54:31;57.35;;;30.13;;
26620;SDS011;14253;44.840;10.444;2022-12-10T10:59:48;51.13;;;26.05;;
26620;SDS011;14253;44.840;10.444;2022-12-10T11:02:18;51.30;;;27.52;;
26620;SDS011;14253;44.840;10.444;2022-12-10T11:05:04;52.45;;;28.38;;
26620;SDS011;14253;44.840;10.444;2022-12-10T11:07:34;54.60;;;30.98;;
26620;SDS011;14253;44.840;10.444;2022-12-10T11:13:04;53.22;;;27.65;;
26620;SDS011;14253;44.840;10.444;2022-12-10T11:15:35;51.45;;;27.55;;
26620;SDS011;14253;44.840;10.444;2022-12-10T11:23:39;54.95;;;28.85;;
26620;SDS011;14253;44.840;10.444;2022-12-10T11:26:13;49.65;;;26.83;;
26620;SDS011;14253;44.840;10.444;2022-12-10T11:35:01;55.60;;;30.27;;
26620;SDS011;14253;44.840;10.444;2022-12-10T11:37:40;56.35;;;28.70;;
26620;SDS011;14253;44.840;10.444;2022-12-10T11:48:55;55.65;;;29.88;;
26620;SDS011;14253;44.840;10.444;2022-12-10T11:51:02;49.83;;;27.25;;
26620;SDS011;14253;44.840;10.444;2022-12-10T11:56:37;50.60;;;28.10;;
26620;SDS011;14253;44.840;10.444;2022-12-10T12:04:58;47.03;;;27.23;;
26620;SDS011;14253;44.840;10.444;2022-12-10T12:12:57;48.13;;;26.05;;
26620;SDS011;14253;44.840;10.444;2022-12-10T12:15:44;42.92;;;24.58;;
26620;SDS011;14253;44.840;10.444;2022-12-10T12:21:19;49.70;;;26.58;;
26620;SDS011;14253;44.840;10.444;2022-12-10T12:28:57;42.08;;;23.80;;
26620;SDS011;14253;44.840;10.444;2022-12-10T12:31:34;47.80;;;25.35;;
26620;SDS011;14253;44.840;10.444;2022-12-10T12:34:11;45.35;;;26.30;;
26620;SDS011;14253;44.840;10.444;2022-12-10T12:36:39;43.45;;;23.52;;
26620;SDS011;14253;44.840;10.444;2022-12-10T12:39:08;46.00;;;26.02;;
26620;SDS011;14253;44.840;10.444;2022-12-10T12:44:29;44.03;;;24.58;;
26620;SDS011;14253;44.840;10.444;2022-12-10T12:49:47;42.90;;;23.13;;
26620;SDS011;14253;44.840;10.444;2022-12-10T12:55:43;44.70;;;23.23;;
26620;SDS011;14253;44.840;10.444;2022-12-10T13:01:31;42.90;;;21.92;;
26620;SDS011;14253;44.840;10.444;2022-12-10T13:03:54;44.33;;;25.13;;
26620;SDS011;14253;44.840;10.444;2022-12-10T13:14:30;45.25;;;25.88;;
26620;SDS011;14253;44.840;10.444;2022-12-10T13:36:19;42.72;;;24.50;;
26620;SDS011;14253;44.840;10.444;2022-12-10T13:41:29;44.00;;;23.60;;
26620;SDS011;14253;44.840;10.444;2022-12-10T13:44:31;40.75;;;22.35;;
26620;SDS011;14253;44.840;10.444;2022-12-10T13:49:59;42.10;;;23.17;;
26620;SDS011;14253;44.840;10.444;2022-12-10T13:52:37;51.60;;;28.40;;
26620;SDS011;14253;44.840;10.444;2022-12-10T14:00:45;41.92;;;23.83;;
26620;SDS011;14253;44.840;10.444;2022-12-10T14:06:17;42.72;;;23.63;;
26620;SDS011;14253;44.840;10.444;2022-12-10T14:09:09;46.33;;;24.23;;
26620;SDS011;14253;44.840;10.444;2022-12-10T14:11:35;47.30;;;24.58;;
26620;SDS011;14253;44.840;10.444;2022-12-10T14:14:04;44.03;;;24.85;;
26620;SDS011;14253;44.840;10.444;2022-12-10T14:19:06;47.70;;;24.35;;
26620;SDS011;14253;44.840;10.444;2022-12-10T14:21:38;45.50;;;26.38;;
26620;SDS011;14253;44.840;10.444;2022-12-10T14:24:25;45.55;;;25.35;;
26620;SDS011;14253;44.840;10.444;2022-12-10T14:26:59;45.47;;;24.20;;
26620;SDS011;14253;44.840;10.444;2022-12-10T14:29:43;44.72;;;23.15;;
26620;SDS011;14253;44.840;10.444;2022-12-10T14:32:14;50.30;;;26.58;;
26620;SDS011;14253;44.840;10.444;2022-12-10T14:34:42;46.97;;;25.08;;
26620;SDS011;14253;44.840;10.444;2022-12-10T14:37:11;47.88;;;24.02;;
26620;SDS011;14253;44.840;10.444;2022-12-10T14:39:39;41.75;;;23.50;;
26620;SDS011;14253;44.840;10.444;2022-12-10T14:42:06;44.03;;;24.73;;
26620;SDS011;14253;44.840;10.444;2022-12-10T14:44:37;43.45;;;22.85;;
26620;SDS011;14253;44.840;10.444;2022-12-10T14:47:05;40.85;;;22.17;;
26620;SDS011;14253;44.840;10.444;2022-12-10T14:49:43;40.00;;;22.33;;
26620;SDS011;14253;44.840;10.444;2022-12-10T14:52:12;40.00;;;21.90;;
26620;SDS011;14253;44.840;10.444;2022-12-10T14:54:40;43.08;;;22.95;;
26620;SDS011;14253;44.840;10.444;2022-12-10T14:57:08;43.30;;;24.67;;
26620;SDS011;14253;44.840;10.444;2022-12-10T15:00:10;46.13;;;24.60;;
26620;SDS011;14253;44.840;10.444;2022-12-10T15:02:41;39.63;;;22.52;;
26620;SDS011;14253;44.840;10.444;2022-12-10T15:05:10;40.90;;;22.02;;
26620;SDS011;14253;44.840;10.444;2022-12-10T15:07:52;39.95;;;22.98;;
26620;SDS011;14253;44.840;10.444;2022-12-10T15:10:23;47.22;;;26.55;;
26620;SDS011;14253;44.840;10.444;2022-12-10T15:12:52;43.17;;;23.87;;
26620;SDS011;14253;44.840;10.444;2022-12-10T15:18:09;47.13;;;26.27;;
26620;SDS011;14253;44.840;10.444;2022-12-10T15:23:07;48.83;;;26.35;;
26620;SDS011;14253;44.840;10.444;2022-12-10T15:28:24;62.72;;;33.20;;
26620;SDS011;14253;44.840;10.444;2022-12-10T15:36:27;44.17;;;23.42;;
26620;SDS011;14253;44.840;10.444;2022-12-10T15:39:13;47.85;;;26.15;;
26620;SDS011;14253;44.840;10.444;2022-12-10T15:41:47;44.30;;;24.88;;
26620;SDS011;14253;44.840;10.444;2022-12-10T15:44:26;53.92;;;29.48;;
26620;SDS011;14253;44.840;10.444;2022-12-10T15:47:09;42.97;;;24.80;;
26620;SDS011;14253;44.840;10.444;2022-12-10T15:49:58;46.40;;;24.80;;
26620;SDS011;14253;44.840;10.444;2022-12-10T15:52:25;45.70;;;26.38;;
26620;SDS011;14253;44.840;10.444;2022-12-10T15:54:54;57.30;;;32.15;;
26620;SDS011;14253;44.840;10.444;2022-12-10T15:57:22;52.53;;;29.65;;
26620;SDS011;14253;44.840;10.444;2022-12-10T15:59:51;50.58;;;27.90;;
26620;SDS011;14253;44.840;10.444;2022-12-10T16:04:56;49.33;;;25.90;;
26620;SDS011;14253;44.840;10.444;2022-12-10T16:07:22;50.45;;;26.08;;
26620;SDS011;14253;44.840;10.444;2022-12-10T16:09:48;46.63;;;26.00;;
26620;SDS011;14253;44.840;10.444;2022-12-10T16:12:15;49.33;;;26.88;;
26620;SDS011;14253;44.840;10.444;2022-12-10T16:15:00;46.42;;;26.98;;
26620;SDS011;14253;44.840;10.444;2022-12-10T16:17:26;55.08;;;28.90;;
26620;SDS011;14253;44.840;10.444;2022-12-10T16:19:53;49.38;;;27.00;;
26620;SDS011;14253;44.840;10.444;2022-12-10T16:22:22;58.58;;;27.33;;
26620;SDS011;14253;44.840;10.444;2022-12-10T16:24:48;46.60;;;26.27;;
26620;SDS011;14253;44.840;10.444;2022-12-10T16:27:14;53.80;;;28.60;;
26620;SDS011;14253;44.840;10.444;2022-12-10T16:29:41;51.90;;;27.48;;
26620;SDS011;14253;44.840;10.444;2022-12-10T16:32:11;51.35;;;27.52;;
26620;SDS011;14253;44.840;10.444;2022-12-10T16:34:38;52.95;;;29.02;;
26620;SDS011;14253;44.840;10.444;2022-12-10T16:37:05;46.78;;;27.10;;
26620;SDS011;14253;44.840;10.444;2022-12-10T16:39:31;48.20;;;26.88;;
26620;SDS011;14253;44.840;10.444;2022-12-10T16:41:57;54.85;;;28.20;;
26620;SDS011;14253;44.840;10.444;2022-12-10T16:44:23;53.55;;;29.70;;
26620;SDS011;14253;44.840;10.444;2022-12-10T16:46:49;51.00;;;27.42;;
26620;SDS011;14253;44.840;10.444;2022-12-10T16:49:16;48.25;;;26.00;;
26620;SDS011;14253;44.840;10.444;2022-12-10T16:51:42;47.05;;;26.38;;
26620;SDS011;14253;44.840;10.444;2022-12-10T16:54:11;46.70;;;25.90;;
26620;SDS011;14253;44.840;10.444;2022-12-10T16:56:38;49.75;;;26.10;;